sensor_id;sensor_type;location;lat;lon;timestamp;P1;durP1;ratioP1;P2;durP2;ratioP2
70725;SDS011;58304;53.104;6.022;2023-02-04T00:03:10;31.35;;;3.53;;
70725;SDS011;58304;53.104;6.022;2023-02-04T00:05:36;30.38;;;3.40;;
70725;SDS011;58304;53.104;6.022;2023-02-04T00:12:54;25.90;;;2.90;;
70725;SDS011;58304;53.104;6.022;2023-02-04T00:22:36;29.40;;;3.03;;
70725;SDS011;58304;53.104;6.022;2023-02-04T00:39:35;24.27;;;3.35;;
70725;SDS011;58304;53.104;6.022;2023-02-04T00:42:00;32.25;;;4.03;;
70725;SDS011;58304;53.104;6.022;2023-02-04T00:44:26;26.02;;;3.53;;
70725;SDS011;58304;53.104;6.022;2023-02-04T00:46:52;22.55;;;3.08;;
70725;SDS011;58304;53.104;6.022;2023-02-04T00:54:10;27.30;;;3.22;;
70725;SDS011;58304;53.104;6.022;2023-02-04T00:59:01;29.63;;;3.05;;
70725;SDS011;58304;53.104;6.022;2023-02-04T01:03:54;30.92;;;3.60;;
70725;SDS011;58304;53.104;6.022;2023-02-04T01:13:37;27.25;;;3.33;;
70725;SDS011;58304;53.104;6.022;2023-02-04T01:16:02;32.63;;;3.35;;
70725;SDS011;58304;53.104;6.022;2023-02-04T01:23:19;28.85;;;3.05;;
70725;SDS011;58304;53.104;6.022;2023-02-04T01:25:45;25.00;;;3.05;;
70725;SDS011;58304;53.104;6.022;2023-02-04T01:28:10;31.17;;;3.60;;
70725;SDS011;58304;53.104;6.022;2023-02-04T01:35:27;26.85;;;3.28;;
70725;SDS011;58304;53.104;6.022;2023-02-04T01:42:43;25.23;;;3.00;;
70725;SDS011;58304;53.104;6.022;2023-02-04T01:47:35;31.10;;;3.95;;
70725;SDS011;58304;53.104;6.022;2023-02-04T01:50:01;27.27;;;3.67;;
70725;SDS011;58304;53.104;6.022;2023-02-04T01:52:28;25.85;;;2.78;;
70725;SDS011;58304;53.104;6.022;2023-02-04T01:54:58;31.30;;;3.53;;
70725;SDS011;58304;53.104;6.022;2023-02-04T02:02:36;36.92;;;4.18;;
70725;SDS011;58304;53.104;6.022;2023-02-04T02:05:11;28.90;;;3.28;;
70725;SDS011;58304;53.104;6.022;2023-02-04T02:07:43;29.15;;;3.78;;
70725;SDS011;58304;53.104;6.022;2023-02-04T02:12:36;23.33;;;2.90;;
70725;SDS011;58304;53.104;6.022;2023-02-04T02:17:27;19.23;;;2.50;;
70725;SDS011;58304;53.104;6.022;2023-02-04T02:19:53;34.90;;;3.88;;
70725;SDS011;58304;53.104;6.022;2023-02-04T02:24:56;18.60;;;3.00;;
70725;SDS011;58304;53.104;6.022;2023-02-04T02:32:14;26.08;;;2.58;;
70725;SDS011;58304;53.104;6.022;2023-02-04T02:34:40;26.17;;;3.60;;
70725;SDS011;58304;53.104;6.022;2023-02-04T02:37:06;26.23;;;3.03;;
70725;SDS011;58304;53.104;6.022;2023-02-04T02:39:33;22.65;;;3.08;;
70725;SDS011;58304;53.104;6.022;2023-02-04T02:41:59;24.75;;;2.80;;
70725;SDS011;58304;53.104;6.022;2023-02-04T02:46:51;26.13;;;2.95;;
70725;SDS011;58304;53.104;6.022;2023-02-04T02:49:18;32.45;;;3.55;;
70725;SDS011;58304;53.104;6.022;2023-02-04T02:51:45;29.33;;;3.90;;
70725;SDS011;58304;53.104;6.022;2023-02-04T02:54:22;23.38;;;3.10;;
70725;SDS011;58304;53.104;6.022;2023-02-04T02:56:56;26.13;;;3.30;;
70725;SDS011;58304;53.104;6.022;2023-02-04T02:59:22;29.40;;;3.42;;
70725;SDS011;58304;53.104;6.022;2023-02-04T03:01:50;23.17;;;3.20;;
70725;SDS011;58304;53.104;6.022;2023-02-04T03:04:26;30.02;;;2.80;;
70725;SDS011;58304;53.104;6.022;2023-02-04T03:06:55;26.52;;;3.35;;
70725;SDS011;58304;53.104;6.022;2023-02-04T03:11:48;25.70;;;2.80;;
70725;SDS011;58304;53.104;6.022;2023-02-04T03:16:39;37.78;;;3.08;;
70725;SDS011;58304;53.104;6.022;2023-02-04T03:21:31;24.60;;;2.83;;
70725;SDS011;58304;53.104;6.022;2023-02-04T03:26:23;26.35;;;3.13;;
70725;SDS011;58304;53.104;6.022;2023-02-04T03:28:49;29.00;;;2.92;;
70725;SDS011;58304;53.104;6.022;2023-02-04T03:31:16;36.08;;;2.80;;
70725;SDS011;58304;53.104;6.022;2023-02-04T03:36:08;25.17;;;3.30;;
70725;SDS011;58304;53.104;6.022;2023-02-04T03:43:25;19.80;;;2.30;;
70725;SDS011;58304;53.104;6.022;2023-02-04T03:45:50;21.92;;;2.55;;
70725;SDS011;58304;53.104;6.022;2023-02-04T03:53:07;17.98;;;2.70;;
70725;SDS011;58304;53.104;6.022;2023-02-04T03:55:33;23.40;;;3.17;;
70725;SDS011;58304;53.104;6.022;2023-02-04T03:58:00;26.98;;;2.95;;
70725;SDS011;58304;53.104;6.022;2023-02-04T04:00:26;20.27;;;2.65;;
70725;SDS011;58304;53.104;6.022;2023-02-04T04:05:17;27.75;;;2.97;;
70725;SDS011;58304;53.104;6.022;2023-02-04T04:07:43;13.65;;;2.63;;
70725;SDS011;58304;53.104;6.022;2023-02-04T04:12:35;19.73;;;2.70;;
70725;SDS011;58304;53.104;6.022;2023-02-04T04:19:52;28.58;;;3.10;;
70725;SDS011;58304;53.104;6.022;2023-02-04T04:27:08;19.33;;;2.22;;
70725;SDS011;58304;53.104;6.022;2023-02-04T04:34:25;24.63;;;3.10;;
70725;SDS011;58304;53.104;6.022;2023-02-04T04:41:41;15.20;;;2.28;;
70725;SDS011;58304;53.104;6.022;2023-02-04T04:44:07;14.93;;;1.90;;
70725;SDS011;58304;53.104;6.022;2023-02-04T04:46:32;18.50;;;2.80;;
70725;SDS011;58304;53.104;6.022;2023-02-04T04:53:49;21.95;;;2.47;;
70725;SDS011;58304;53.104;6.022;2023-02-04T04:56:15;18.17;;;2.20;;
70725;SDS011;58304;53.104;6.022;2023-02-04T04:58:40;25.80;;;2.70;;
70725;SDS011;58304;53.104;6.022;2023-02-04T05:05:57;19.75;;;2.38;;
70725;SDS011;58304;53.104;6.022;2023-02-04T05:08:23;20.45;;;2.30;;
70725;SDS011;58304;53.104;6.022;2023-02-04T05:10:48;23.20;;;2.67;;
70725;SDS011;58304;53.104;6.022;2023-02-04T05:13:14;26.40;;;2.85;;
70725;SDS011;58304;53.104;6.022;2023-02-04T05:15:40;14.38;;;2.70;;
70725;SDS011;58304;53.104;6.022;2023-02-04T05:18:06;26.27;;;2.78;;
70725;SDS011;58304;53.104;6.022;2023-02-04T05:25:25;13.57;;;1.60;;
70725;SDS011;58304;53.104;6.022;2023-02-04T05:27:52;17.45;;;2.42;;
70725;SDS011;58304;53.104;6.022;2023-02-04T05:40:00;17.63;;;2.20;;
70725;SDS011;58304;53.104;6.022;2023-02-04T05:47:16;14.20;;;2.13;;
70725;SDS011;58304;53.104;6.022;2023-02-04T05:49:44;19.73;;;2.63;;
70725;SDS011;58304;53.104;6.022;2023-02-04T05:54:35;19.90;;;1.90;;
70725;SDS011;58304;53.104;6.022;2023-02-04T05:57:01;15.27;;;2.10;;
70725;SDS011;58304;53.104;6.022;2023-02-04T05:59:27;19.95;;;2.53;;
70725;SDS011;58304;53.104;6.022;2023-02-04T06:01:52;16.75;;;2.25;;
70725;SDS011;58304;53.104;6.022;2023-02-04T06:04:18;16.98;;;3.15;;
70725;SDS011;58304;53.104;6.022;2023-02-04T06:06:44;18.67;;;2.13;;
70725;SDS011;58304;53.104;6.022;2023-02-04T06:09:09;17.55;;;2.33;;
70725;SDS011;58304;53.104;6.022;2023-02-04T06:11:35;19.00;;;2.60;;
70725;SDS011;58304;53.104;6.022;2023-02-04T06:14:01;19.23;;;2.28;;
70725;SDS011;58304;53.104;6.022;2023-02-04T06:18:53;25.15;;;3.10;;
70725;SDS011;58304;53.104;6.022;2023-02-04T06:21:18;20.45;;;3.03;;
70725;SDS011;58304;53.104;6.022;2023-02-04T06:26:10;14.32;;;2.25;;
70725;SDS011;58304;53.104;6.022;2023-02-04T06:31:01;22.67;;;2.05;;
70725;SDS011;58304;53.104;6.022;2023-02-04T06:35:53;13.82;;;2.13;;
70725;SDS011;58304;53.104;6.022;2023-02-04T06:38:18;17.65;;;2.30;;
70725;SDS011;58304;53.104;6.022;2023-02-04T06:40:45;18.00;;;2.15;;
70725;SDS011;58304;53.104;6.022;2023-02-04T06:43:14;13.20;;;2.10;;
70725;SDS011;58304;53.104;6.022;2023-02-04T06:45:40;23.88;;;2.50;;
70725;SDS011;58304;53.104;6.022;2023-02-04T06:55:22;20.35;;;2.95;;
70725;SDS011;58304;53.104;6.022;2023-02-04T07:02:39;14.50;;;2.10;;
70725;SDS011;58304;53.104;6.022;2023-02-04T07:05:06;20.48;;;2.15;;
70725;SDS011;58304;53.104;6.022;2023-02-04T07:09:58;17.20;;;2.08;;
70725;SDS011;58304;53.104;6.022;2023-02-04T07:12:23;13.15;;;2.40;;
70725;SDS011;58304;53.104;6.022;2023-02-04T07:19:40;13.48;;;2.53;;
70725;SDS011;58304;53.104;6.022;2023-02-04T07:24:32;7.32;;;1.30;;
70725;SDS011;58304;53.104;6.022;2023-02-04T07:29:23;11.00;;;1.40;;
70725;SDS011;58304;53.104;6.022;2023-02-04T07:31:49;14.10;;;1.58;;
70725;SDS011;58304;53.104;6.022;2023-02-04T07:34:16;18.77;;;2.42;;
70725;SDS011;58304;53.104;6.022;2023-02-04T07:39:08;14.10;;;2.45;;
70725;SDS011;58304;53.104;6.022;2023-02-04T07:41:34;11.70;;;1.77;;
70725;SDS011;58304;53.104;6.022;2023-02-04T07:46:26;10.65;;;1.38;;
70725;SDS011;58304;53.104;6.022;2023-02-04T07:51:17;9.82;;;1.38;;
70725;SDS011;58304;53.104;6.022;2023-02-04T07:53:43;10.48;;;1.27;;
70725;SDS011;58304;53.104;6.022;2023-02-04T07:56:08;23.52;;;2.20;;
70725;SDS011;58304;53.104;6.022;2023-02-04T07:58:34;14.30;;;2.35;;
70725;SDS011;58304;53.104;6.022;2023-02-04T08:03:25;12.80;;;1.67;;
70725;SDS011;58304;53.104;6.022;2023-02-04T08:08:17;17.50;;;2.38;;
70725;SDS011;58304;53.104;6.022;2023-02-04T08:13:08;19.80;;;2.50;;
70725;SDS011;58304;53.104;6.022;2023-02-04T08:18:00;12.60;;;2.20;;
70725;SDS011;58304;53.104;6.022;2023-02-04T08:20:25;13.63;;;1.80;;
70725;SDS011;58304;53.104;6.022;2023-02-04T08:32:33;11.00;;;1.85;;
70725;SDS011;58304;53.104;6.022;2023-02-04T08:37:25;15.65;;;2.20;;
70725;SDS011;58304;53.104;6.022;2023-02-04T08:42:16;20.40;;;2.28;;
70725;SDS011;58304;53.104;6.022;2023-02-04T08:44:42;15.48;;;2.28;;
70725;SDS011;58304;53.104;6.022;2023-02-04T08:49:34;16.83;;;2.30;;
70725;SDS011;58304;53.104;6.022;2023-02-04T08:52:00;14.02;;;2.10;;
70725;SDS011;58304;53.104;6.022;2023-02-04T08:54:27;13.77;;;2.10;;
70725;SDS011;58304;53.104;6.022;2023-02-04T08:59:18;19.50;;;2.20;;
70725;SDS011;58304;53.104;6.022;2023-02-04T09:01:45;15.40;;;2.60;;
70725;SDS011;58304;53.104;6.022;2023-02-04T09:04:13;9.68;;;1.95;;
70725;SDS011;58304;53.104;6.022;2023-02-04T09:09:04;15.20;;;2.25;;
70725;SDS011;58304;53.104;6.022;2023-02-04T09:13:55;13.88;;;2.03;;
70725;SDS011;58304;53.104;6.022;2023-02-04T09:16:21;9.88;;;1.58;;
70725;SDS011;58304;53.104;6.022;2023-02-04T09:21:13;17.25;;;2.05;;
70725;SDS011;58304;53.104;6.022;2023-02-04T09:23:38;15.55;;;1.98;;
70725;SDS011;58304;53.104;6.022;2023-02-04T09:26:04;17.13;;;2.00;;
70725;SDS011;58304;53.104;6.022;2023-02-04T09:28:30;11.07;;;1.85;;
70725;SDS011;58304;53.104;6.022;2023-02-04T09:30:56;15.82;;;1.98;;
70725;SDS011;58304;53.104;6.022;2023-02-04T09:35:47;13.75;;;1.70;;
70725;SDS011;58304;53.104;6.022;2023-02-04T09:40:43;12.15;;;1.60;;
70725;SDS011;58304;53.104;6.022;2023-02-04T09:43:15;10.93;;;1.90;;
70725;SDS011;58304;53.104;6.022;2023-02-04T09:45:44;6.50;;;2.10;;
70725;SDS011;58304;53.104;6.022;2023-02-04T09:50:37;12.57;;;1.67;;
70725;SDS011;58304;53.104;6.022;2023-02-04T09:55:31;18.88;;;2.35;;
70725;SDS011;58304;53.104;6.022;2023-02-04T09:58:04;16.73;;;2.20;;
70725;SDS011;58304;53.104;6.022;2023-02-04T10:00:36;10.77;;;1.88;;
70725;SDS011;58304;53.104;6.022;2023-02-04T10:05:34;13.73;;;1.45;;
70725;SDS011;58304;53.104;6.022;2023-02-04T10:08:01;9.90;;;1.67;;
70725;SDS011;58304;53.104;6.022;2023-02-04T10:10:29;10.30;;;1.38;;
70725;SDS011;58304;53.104;6.022;2023-02-04T10:15:25;8.55;;;1.20;;
70725;SDS011;58304;53.104;6.022;2023-02-04T10:17:53;7.40;;;1.08;;
70725;SDS011;58304;53.104;6.022;2023-02-04T10:20:23;9.13;;;1.55;;
70725;SDS011;58304;53.104;6.022;2023-02-04T10:22:53;9.15;;;1.30;;
70725;SDS011;58304;53.104;6.022;2023-02-04T10:25:20;7.55;;;1.25;;
70725;SDS011;58304;53.104;6.022;2023-02-04T10:27:54;12.88;;;1.48;;
70725;SDS011;58304;53.104;6.022;2023-02-04T10:30:26;12.23;;;1.55;;
70725;SDS011;58304;53.104;6.022;2023-02-04T10:33:11;8.73;;;1.33;;
70725;SDS011;58304;53.104;6.022;2023-02-04T10:35:49;12.20;;;1.67;;
70725;SDS011;58304;53.104;6.022;2023-02-04T10:38:16;10.52;;;1.30;;
70725;SDS011;58304;53.104;6.022;2023-02-04T10:43:19;10.10;;;1.35;;
70725;SDS011;58304;53.104;6.022;2023-02-04T10:45:47;9.65;;;1.65;;
70725;SDS011;58304;53.104;6.022;2023-02-04T10:48:23;13.70;;;1.48;;
70725;SDS011;58304;53.104;6.022;2023-02-04T10:50:49;7.03;;;1.45;;
70725;SDS011;58304;53.104;6.022;2023-02-04T10:56:02;13.23;;;1.80;;
70725;SDS011;58304;53.104;6.022;2023-02-04T10:58:29;13.65;;;1.70;;
70725;SDS011;58304;53.104;6.022;2023-02-04T11:00:56;8.15;;;1.50;;
70725;SDS011;58304;53.104;6.022;2023-02-04T11:05:47;12.93;;;1.52;;
70725;SDS011;58304;53.104;6.022;2023-02-04T11:08:18;7.43;;;1.23;;
70725;SDS011;58304;53.104;6.022;2023-02-04T11:13:43;11.25;;;1.27;;
70725;SDS011;58304;53.104;6.022;2023-02-04T11:18:54;10.98;;;1.65;;
70725;SDS011;58304;53.104;6.022;2023-02-04T11:39:26;6.15;;;1.58;;
70725;SDS011;58304;53.104;6.022;2023-02-04T11:41:58;10.70;;;1.50;;
70725;SDS011;58304;53.104;6.022;2023-02-04T11:44:25;9.75;;;1.42;;
70725;SDS011;58304;53.104;6.022;2023-02-04T11:46:51;17.00;;;1.70;;
70725;SDS011;58304;53.104;6.022;2023-02-04T11:49:21;7.95;;;1.20;;
70725;SDS011;58304;53.104;6.022;2023-02-04T11:51:49;9.95;;;1.73;;
70725;SDS011;58304;53.104;6.022;2023-02-04T11:54:15;7.88;;;1.30;;
70725;SDS011;58304;53.104;6.022;2023-02-04T11:56:46;16.27;;;2.03;;
70725;SDS011;58304;53.104;6.022;2023-02-04T11:59:12;8.85;;;1.20;;
70725;SDS011;58304;53.104;6.022;2023-02-04T12:01:39;8.30;;;1.52;;
70725;SDS011;58304;53.104;6.022;2023-02-04T12:04:05;10.13;;;1.75;;
70725;SDS011;58304;53.104;6.022;2023-02-04T12:06:55;7.90;;;1.30;;
70725;SDS011;58304;53.104;6.022;2023-02-04T12:09:23;13.05;;;1.77;;
70725;SDS011;58304;53.104;6.022;2023-02-04T12:11:51;5.90;;;1.33;;
70725;SDS011;58304;53.104;6.022;2023-02-04T12:14:18;15.45;;;1.67;;
70725;SDS011;58304;53.104;6.022;2023-02-04T12:16:45;11.50;;;2.10;;
70725;SDS011;58304;53.104;6.022;2023-02-04T12:19:12;11.05;;;2.10;;
70725;SDS011;58304;53.104;6.022;2023-02-04T12:21:39;8.75;;;1.60;;
70725;SDS011;58304;53.104;6.022;2023-02-04T12:24:05;10.45;;;1.73;;
70725;SDS011;58304;53.104;6.022;2023-02-04T12:26:31;7.93;;;1.73;;
70725;SDS011;58304;53.104;6.022;2023-02-04T12:28:57;10.02;;;1.63;;
70725;SDS011;58304;53.104;6.022;2023-02-04T12:31:27;6.63;;;1.70;;
70725;SDS011;58304;53.104;6.022;2023-02-04T12:33:54;9.25;;;1.65;;
70725;SDS011;58304;53.104;6.022;2023-02-04T12:36:20;7.03;;;1.23;;
70725;SDS011;58304;53.104;6.022;2023-02-04T12:38:45;8.20;;;1.60;;
70725;SDS011;58304;53.104;6.022;2023-02-04T12:41:11;6.55;;;1.65;;
70725;SDS011;58304;53.104;6.022;2023-02-04T12:43:37;11.00;;;1.88;;
70725;SDS011;58304;53.104;6.022;2023-02-04T12:46:03;10.95;;;1.75;;
70725;SDS011;58304;53.104;6.022;2023-02-04T12:48:28;12.10;;;1.60;;
70725;SDS011;58304;53.104;6.022;2023-02-04T12:50:54;9.30;;;1.70;;
70725;SDS011;58304;53.104;6.022;2023-02-04T12:53:20;11.10;;;1.77;;
70725;SDS011;58304;53.104;6.022;2023-02-04T12:55:46;12.40;;;1.88;;
70725;SDS011;58304;53.104;6.022;2023-02-04T12:58:12;12.38;;;1.98;;
70725;SDS011;58304;53.104;6.022;2023-02-04T13:00:37;11.70;;;1.90;;
70725;SDS011;58304;53.104;6.022;2023-02-04T13:03:03;13.25;;;2.33;;
70725;SDS011;58304;53.104;6.022;2023-02-04T13:05:31;10.10;;;1.45;;
70725;SDS011;58304;53.104;6.022;2023-02-04T13:07:57;10.18;;;1.48;;
70725;SDS011;58304;53.104;6.022;2023-02-04T13:10:23;10.90;;;1.90;;
70725;SDS011;58304;53.104;6.022;2023-02-04T13:12:49;11.48;;;1.48;;
70725;SDS011;58304;53.104;6.022;2023-02-04T13:15:15;7.80;;;1.45;;
70725;SDS011;58304;53.104;6.022;2023-02-04T13:17:41;8.88;;;1.48;;
70725;SDS011;58304;53.104;6.022;2023-02-04T13:20:07;10.60;;;1.70;;
70725;SDS011;58304;53.104;6.022;2023-02-04T13:22:34;9.30;;;1.63;;
70725;SDS011;58304;53.104;6.022;2023-02-04T13:24:59;8.85;;;1.63;;
70725;SDS011;58304;53.104;6.022;2023-02-04T13:27:25;15.13;;;1.80;;
70725;SDS011;58304;53.104;6.022;2023-02-04T13:29:51;7.03;;;1.40;;
70725;SDS011;58304;53.104;6.022;2023-02-04T13:32:17;8.88;;;1.40;;
70725;SDS011;58304;53.104;6.022;2023-02-04T13:34:43;7.47;;;1.60;;
70725;SDS011;58304;53.104;6.022;2023-02-04T13:37:11;13.00;;;1.60;;
70725;SDS011;58304;53.104;6.022;2023-02-04T13:39:36;10.05;;;1.52;;
70725;SDS011;58304;53.104;6.022;2023-02-04T13:42:02;9.45;;;2.00;;
70725;SDS011;58304;53.104;6.022;2023-02-04T13:44:27;11.98;;;1.70;;
70725;SDS011;58304;53.104;6.022;2023-02-04T13:46:53;11.02;;;1.60;;
70725;SDS011;58304;53.104;6.022;2023-02-04T13:49:19;9.30;;;1.50;;
70725;SDS011;58304;53.104;6.022;2023-02-04T13:51:45;12.45;;;1.73;;
70725;SDS011;58304;53.104;6.022;2023-02-04T13:54:11;9.80;;;1.48;;
70725;SDS011;58304;53.104;6.022;2023-02-04T13:56:37;10.38;;;1.50;;
70725;SDS011;58304;53.104;6.022;2023-02-04T13:59:03;8.80;;;1.70;;
70725;SDS011;58304;53.104;6.022;2023-02-04T14:01:29;10.32;;;1.52;;
70725;SDS011;58304;53.104;6.022;2023-02-04T14:03:55;8.43;;;1.33;;
70725;SDS011;58304;53.104;6.022;2023-02-04T14:06:20;9.55;;;1.40;;
70725;SDS011;58304;53.104;6.022;2023-02-04T14:08:47;12.82;;;1.67;;
70725;SDS011;58304;53.104;6.022;2023-02-04T14:11:13;11.75;;;1.80;;
70725;SDS011;58304;53.104;6.022;2023-02-04T14:13:38;11.05;;;1.63;;
70725;SDS011;58304;53.104;6.022;2023-02-04T14:16:04;12.25;;;1.80;;
70725;SDS011;58304;53.104;6.022;2023-02-04T14:18:31;12.80;;;1.73;;
70725;SDS011;58304;53.104;6.022;2023-02-04T14:20:57;11.52;;;1.50;;
70725;SDS011;58304;53.104;6.022;2023-02-04T14:23:24;11.60;;;1.77;;
70725;SDS011;58304;53.104;6.022;2023-02-04T14:25:50;17.33;;;1.95;;
70725;SDS011;58304;53.104;6.022;2023-02-04T14:28:15;11.88;;;1.85;;
70725;SDS011;58304;53.104;6.022;2023-02-04T14:30:41;12.63;;;2.00;;
70725;SDS011;58304;53.104;6.022;2023-02-04T14:33:07;13.57;;;1.73;;
70725;SDS011;58304;53.104;6.022;2023-02-04T14:35:33;10.35;;;1.30;;
70725;SDS011;58304;53.104;6.022;2023-02-04T14:37:59;12.80;;;1.65;;
70725;SDS011;58304;53.104;6.022;2023-02-04T14:40:25;12.57;;;1.65;;
70725;SDS011;58304;53.104;6.022;2023-02-04T14:42:50;12.65;;;1.85;;
70725;SDS011;58304;53.104;6.022;2023-02-04T14:45:17;14.07;;;1.63;;
70725;SDS011;58304;53.104;6.022;2023-02-04T14:47:43;9.15;;;1.55;;
70725;SDS011;58304;53.104;6.022;2023-02-04T14:50:13;10.48;;;1.80;;
70725;SDS011;58304;53.104;6.022;2023-02-04T14:52:40;7.63;;;1.40;;
70725;SDS011;58304;53.104;6.022;2023-02-04T14:55:06;14.98;;;1.38;;
70725;SDS011;58304;53.104;6.022;2023-02-04T14:57:35;14.13;;;1.55;;
70725;SDS011;58304;53.104;6.022;2023-02-04T15:00:00;10.40;;;1.45;;
70725;SDS011;58304;53.104;6.022;2023-02-04T15:02:26;11.82;;;1.60;;
70725;SDS011;58304;53.104;6.022;2023-02-04T15:04:51;9.75;;;1.45;;
70725;SDS011;58304;53.104;6.022;2023-02-04T15:07:18;7.93;;;1.50;;
70725;SDS011;58304;53.104;6.022;2023-02-04T15:09:43;8.13;;;1.30;;
70725;SDS011;58304;53.104;6.022;2023-02-04T15:12:09;6.65;;;1.30;;
70725;SDS011;58304;53.104;6.022;2023-02-04T15:14:35;6.80;;;1.30;;
70725;SDS011;58304;53.104;6.022;2023-02-04T15:17:01;9.88;;;1.60;;
70725;SDS011;58304;53.104;6.022;2023-02-04T15:19:26;6.20;;;1.17;;
70725;SDS011;58304;53.104;6.022;2023-02-04T15:21:52;7.10;;;1.40;;
70725;SDS011;58304;53.104;6.022;2023-02-04T15:24:18;8.98;;;1.85;;
70725;SDS011;58304;53.104;6.022;2023-02-04T15:26:44;11.07;;;1.55;;
70725;SDS011;58304;53.104;6.022;2023-02-04T15:29:09;9.13;;;1.30;;
70725;SDS011;58304;53.104;6.022;2023-02-04T15:31:35;6.20;;;0.90;;
70725;SDS011;58304;53.104;6.022;2023-02-04T15:34:01;4.55;;;1.30;;
70725;SDS011;58304;53.104;6.022;2023-02-04T15:36:27;5.97;;;1.17;;
70725;SDS011;58304;53.104;6.022;2023-02-04T15:38:52;7.53;;;1.10;;
70725;SDS011;58304;53.104;6.022;2023-02-04T15:41:18;7.03;;;1.08;;
70725;SDS011;58304;53.104;6.022;2023-02-04T15:43:43;7.47;;;1.20;;
70725;SDS011;58304;53.104;6.022;2023-02-04T15:46:09;4.88;;;1.17;;
70725;SDS011;58304;53.104;6.022;2023-02-04T15:48:35;6.82;;;1.25;;
70725;SDS011;58304;53.104;6.022;2023-02-04T15:51:00;6.97;;;0.90;;
70725;SDS011;58304;53.104;6.022;2023-02-04T15:53:30;5.60;;;1.15;;
70725;SDS011;58304;53.104;6.022;2023-02-04T15:55:56;4.15;;;1.00;;
70725;SDS011;58304;53.104;6.022;2023-02-04T15:58:21;5.03;;;1.00;;
70725;SDS011;58304;53.104;6.022;2023-02-04T16:00:47;8.10;;;1.10;;
70725;SDS011;58304;53.104;6.022;2023-02-04T16:03:13;8.55;;;1.50;;
70725;SDS011;58304;53.104;6.022;2023-02-04T16:05:38;8.05;;;1.00;;
70725;SDS011;58304;53.104;6.022;2023-02-04T16:08:04;7.47;;;1.20;;
70725;SDS011;58304;53.104;6.022;2023-02-04T16:10:29;7.65;;;1.38;;
70725;SDS011;58304;53.104;6.022;2023-02-04T16:12:55;6.32;;;1.15;;
70725;SDS011;58304;53.104;6.022;2023-02-04T16:15:22;5.75;;;1.20;;
70725;SDS011;58304;53.104;6.022;2023-02-04T16:17:48;5.05;;;1.30;;
70725;SDS011;58304;53.104;6.022;2023-02-04T16:20:15;7.18;;;1.50;;
70725;SDS011;58304;53.104;6.022;2023-02-04T16:22:41;3.83;;;1.27;;
70725;SDS011;58304;53.104;6.022;2023-02-04T16:25:07;6.40;;;1.45;;
70725;SDS011;58304;53.104;6.022;2023-02-04T16:27:33;4.70;;;1.38;;
70725;SDS011;58304;53.104;6.022;2023-02-04T16:29:58;10.40;;;2.05;;
70725;SDS011;58304;53.104;6.022;2023-02-04T16:32:24;5.28;;;1.17;;
70725;SDS011;58304;53.104;6.022;2023-02-04T16:34:51;6.40;;;1.58;;
70725;SDS011;58304;53.104;6.022;2023-02-04T16:37:17;8.73;;;2.05;;
70725;SDS011;58304;53.104;6.022;2023-02-04T16:39:43;6.90;;;1.38;;
70725;SDS011;58304;53.104;6.022;2023-02-04T16:44:35;8.75;;;1.70;;
70725;SDS011;58304;53.104;6.022;2023-02-04T16:47:02;8.13;;;1.85;;
70725;SDS011;58304;53.104;6.022;2023-02-04T16:49:28;8.00;;;1.85;;
70725;SDS011;58304;53.104;6.022;2023-02-04T16:51:54;6.90;;;1.80;;
70725;SDS011;58304;53.104;6.022;2023-02-04T16:54:19;11.48;;;1.92;;
70725;SDS011;58304;53.104;6.022;2023-02-04T16:59:11;7.78;;;1.80;;
70725;SDS011;58304;53.104;6.022;2023-02-04T17:01:37;7.63;;;2.00;;
70725;SDS011;58304;53.104;6.022;2023-02-04T17:04:05;10.98;;;2.10;;
70725;SDS011;58304;53.104;6.022;2023-02-04T17:08:57;7.30;;;2.20;;
70725;SDS011;58304;53.104;6.022;2023-02-04T17:11:23;8.93;;;2.13;;
70725;SDS011;58304;53.104;6.022;2023-02-04T17:13:59;8.50;;;2.22;;
70725;SDS011;58304;53.104;6.022;2023-02-04T17:16:27;8.15;;;2.20;;
70725;SDS011;58304;53.104;6.022;2023-02-04T17:18:53;9.90;;;1.80;;
70725;SDS011;58304;53.104;6.022;2023-02-04T17:21:20;6.38;;;2.05;;
70725;SDS011;58304;53.104;6.022;2023-02-04T17:23:47;7.57;;;2.10;;
70725;SDS011;58304;53.104;6.022;2023-02-04T17:26:13;13.70;;;2.50;;
70725;SDS011;58304;53.104;6.022;2023-02-04T17:31:04;11.00;;;2.20;;
70725;SDS011;58304;53.104;6.022;2023-02-04T17:35:57;10.02;;;2.28;;
70725;SDS011;58304;53.104;6.022;2023-02-04T17:38:26;9.15;;;1.95;;
70725;SDS011;58304;53.104;6.022;2023-02-04T17:40:52;6.70;;;2.13;;
70725;SDS011;58304;53.104;6.022;2023-02-04T17:43:19;9.90;;;2.13;;
70725;SDS011;58304;53.104;6.022;2023-02-04T17:45:45;8.25;;;2.00;;
70725;SDS011;58304;53.104;6.022;2023-02-04T17:50:37;9.15;;;2.55;;
70725;SDS011;58304;53.104;6.022;2023-02-04T17:53:04;12.60;;;2.67;;
70725;SDS011;58304;53.104;6.022;2023-02-04T17:55:30;9.60;;;2.67;;
70725;SDS011;58304;53.104;6.022;2023-02-04T17:57:58;11.35;;;3.35;;
70725;SDS011;58304;53.104;6.022;2023-02-04T18:00:26;16.05;;;3.85;;
70725;SDS011;58304;53.104;6.022;2023-02-04T18:02:54;13.55;;;3.70;;
70725;SDS011;58304;53.104;6.022;2023-02-04T18:08:09;10.52;;;3.40;;
70725;SDS011;58304;53.104;6.022;2023-02-04T18:10:43;9.07;;;3.55;;
70725;SDS011;58304;53.104;6.022;2023-02-04T18:16:07;8.27;;;3.30;;
70725;SDS011;58304;53.104;6.022;2023-02-04T18:18:47;7.50;;;2.70;;
70725;SDS011;58304;53.104;6.022;2023-02-04T18:23:46;9.55;;;3.00;;
70725;SDS011;58304;53.104;6.022;2023-02-04T18:26:18;5.82;;;2.15;;
70725;SDS011;58304;53.104;6.022;2023-02-04T18:28:48;7.40;;;2.30;;
70725;SDS011;58304;53.104;6.022;2023-02-04T18:31:24;8.63;;;2.30;;
70725;SDS011;58304;53.104;6.022;2023-02-04T18:34:13;7.13;;;2.65;;
70725;SDS011;58304;53.104;6.022;2023-02-04T18:36:46;5.80;;;1.98;;
70725;SDS011;58304;53.104;6.022;2023-02-04T18:39:23;9.27;;;2.28;;
70725;SDS011;58304;53.104;6.022;2023-02-04T18:41:52;8.48;;;2.75;;
70725;SDS011;58304;53.104;6.022;2023-02-04T18:44:32;8.13;;;2.70;;
70725;SDS011;58304;53.104;6.022;2023-02-04T18:47:42;9.07;;;2.50;;
70725;SDS011;58304;53.104;6.022;2023-02-04T18:50:00;7.82;;;3.25;;
70725;SDS011;58304;53.104;6.022;2023-02-04T18:52:36;7.82;;;2.22;;
70725;SDS011;58304;53.104;6.022;2023-02-04T18:55:10;9.63;;;2.63;;
70725;SDS011;58304;53.104;6.022;2023-02-04T18:57:42;8.80;;;3.08;;
70725;SDS011;58304;53.104;6.022;2023-02-04T19:02:35;10.05;;;2.75;;
70725;SDS011;58304;53.104;6.022;2023-02-04T19:10:30;7.03;;;1.92;;
70725;SDS011;58304;53.104;6.022;2023-02-04T19:13:14;8.07;;;2.42;;
70725;SDS011;58304;53.104;6.022;2023-02-04T19:16:01;7.25;;;2.55;;
70725;SDS011;58304;53.104;6.022;2023-02-04T19:18:38;7.72;;;2.40;;
70725;SDS011;58304;53.104;6.022;2023-02-04T19:29:25;8.43;;;2.70;;
70725;SDS011;58304;53.104;6.022;2023-02-04T19:31:59;6.03;;;2.50;;
70725;SDS011;58304;53.104;6.022;2023-02-04T19:34:34;7.32;;;2.65;;
70725;SDS011;58304;53.104;6.022;2023-02-04T19:37:13;7.55;;;2.60;;
70725;SDS011;58304;53.104;6.022;2023-02-04T19:39:45;8.50;;;2.60;;
70725;SDS011;58304;53.104;6.022;2023-02-04T19:45:11;9.60;;;3.20;;
70725;SDS011;58304;53.104;6.022;2023-02-04T19:47:49;10.45;;;4.18;;
70725;SDS011;58304;53.104;6.022;2023-02-04T19:50:19;8.82;;;3.40;;
70725;SDS011;58304;53.104;6.022;2023-02-04T19:52:50;10.05;;;3.30;;
70725;SDS011;58304;53.104;6.022;2023-02-04T19:55:27;7.30;;;3.08;;
70725;SDS011;58304;53.104;6.022;2023-02-04T19:58:12;8.07;;;3.40;;
70725;SDS011;58304;53.104;6.022;2023-02-04T20:00:39;9.70;;;3.30;;
70725;SDS011;58304;53.104;6.022;2023-02-04T20:05:52;9.20;;;3.50;;
70725;SDS011;58304;53.104;6.022;2023-02-04T20:08:39;10.02;;;3.60;;
70725;SDS011;58304;53.104;6.022;2023-02-04T20:11:32;6.72;;;3.22;;